Aeroporto :
LOGIN :

Iscrizione | Disclaimer

   EN    FR    IT 

 










Sommario :    VFR   VFR Marginale   IFR   IFR Intensivo   IFR Molto Intensivo
Visibilità : 
Base nubi : 
>= 8 km
>= 3000ft
5 / 8 km
1000 / 3000 ft
1500m / 5 km
500 / 1000 ft
800 / 1500m
200 / 500 ft
< 800m
< 200 ft
Simboli :   Temporali  Nebbia  Neve Forte  Precipitazioni Forti  Vento > 20 kt
SIGMETs :   Varie  Temporali  Ghiacco  Turbolenza  Onda orograficha  Ceneri Vulcaniche






- Altitudine del aeroporto : 755 ft
- Codice IATA : KSC


LZKZ - Kosice

ULTIMO METAR :
  • 080600Z VRB02KT CAVOK 09/M03 Q1031 NOSIG

METARs OBSOLETI :
  • 080530Z 05002KT CAVOK 07/M03 Q1031 NOSIG
  • 080500Z 36003KT CAVOK 05/M04 Q1031 NOSIG
  • 080437Z 35003KT CAVOK 04/M04 Q1031
  • 080430Z 33002KT CAVOK 02/M05 Q1031 NOSIG
  • 080400Z VRB01KT CAVOK 01/M05 Q1031
  • 080330Z VRB01KT CAVOK 04/M05 Q1031

TAF TAF LZKZ
Valido dal 08 a 06 ore il 09 a 06 ore UTC


080500Z 0806/0906 VRB02KT CAVOK
TEMPO 0809/0816 15006KT



MetMap, La meteo Aeronautica in un colpo d'occhio ! - Copyright ORBIFLY Dicembre 2007 - Disclaimer

ORBIFLY MET'MAP TEAM :

Programmazione e sviluppo : Alexandra Zaïnal
Concezione : Baudouin d'Aumeries
Aiuto per la programmazione : Marc-Olivier Méhu
Supporto tecnico e logistico : Manuel Goepfert
Aiuto per la traduzione : Arnaldo La Scala

Contatto : metmap@orbifly.com




FONTI E CREDITI :

   NOAA